• Join FlightAware (Why Join?)
  • Login
  • US Flag 
11:32AM EDT


 

Airport Tracker/Info


-or-


 

Live Flight TrackerFlight Track Log ✈ N89KB ✈ 01-May-2013 ✈ KGSO - KGMU

Flight Track Log - Related Links

Times and Time Zones

All times are in EDT time to prevent confusion due to time zone crossing. See the N89KB flight status page for this flight to view local times or setup timezone preferences in your user account.

Time Position Orientation Groundspeed Altitude Reporting Facility
EDT Latitude Longitude Course Direction KTS MPH feet Rate Location/Type
03:30PM 36.0571 -80.1627 263° West  Level FlightAware Approximate
03:31PM 36.0524 -80.2096 263° West  Level FlightAware Approximate
03:32PM 36.0437 -80.2554 251° West  Level FlightAware Approximate
03:33PM 36.0310 -80.2999 251° West  Level FlightAware Approximate
03:34PM 36.0182 -80.3445 251° West  Level FlightAware Approximate
03:34PM 36.0414 -80.3794 261° West 194 223 10,000  Level Atlanta Center
03:35PM 36.0113 -80.3908 261° West  Level FlightAware Approximate
03:35PM 36.0286 -80.4442 256° West 200 230 10,000  Level Atlanta Center
03:36PM 36.0051 -80.4375 261° West  Level FlightAware Approximate
03:36PM 36.0161 -80.5142 258° West 206 237 10,000  Level Atlanta Center
03:37PM 35.9989 -80.4841 261° West  Level FlightAware Approximate
03:37PM 36.0011 -80.5764 253° West 206 237 10,000  Level Atlanta Center
03:38PM 35.9926 -80.5307 261° West  Level FlightAware Approximate
03:38PM 35.9903 -80.6408 258° West 212 244 10,000  Level Atlanta Center
03:39PM 35.9864 -80.5772 261° West  Level FlightAware Approximate
03:39PM 35.9756 -80.7056 254° West 206 237 10,000  Level Atlanta Center
03:40PM 35.9625 -80.7703 256° West 206 237 10,000  Level Atlanta Center
03:41PM 35.9497 -80.8375 257° West 201 231 10,000  Level Atlanta Center
03:42PM 35.9369 -80.9022 256° West 206 237 10,000 -360 Level Atlanta Center
03:43PM 35.9239 -80.9669 256° West 206 237 9,300 -840 Descending Atlanta Center
03:44PM 35.9358 -81.0306 283° West 194 223 8,400 -720 Descending Atlanta Center
03:45PM 35.9458 -81.0942 281° West 194 223 7,900 -300 Descending Atlanta Center
03:46PM 35.9200 -81.1517 241° Southwest 186 214 7,900  Level Atlanta Center
03:47PM 35.8772 -81.1914 217° Southwest 174 200 7,900  Level Atlanta Center
03:48PM 35.8386 -81.2339 222° Southwest 187 215 7,900  Level Atlanta Center
03:49PM 35.8000 -81.2786 223° Southwest 192 221 7,900  Level Atlanta Center
03:50PM 35.7611 -81.3236 223° Southwest 192 221 7,900  Level Atlanta Center
03:51PM 35.7225 -81.3683 223° Southwest 192 221 7,900  Level Atlanta Center
03:52PM 35.6839 -81.4131 223° Southwest 192 221 7,900  Level Atlanta Center
03:53PM 35.6431 -81.4578 222° Southwest 187 215 7,900  Level Atlanta Center
03:54PM 35.6044 -81.5025 223° Southwest 187 215 7,900  Level Atlanta Center
03:55PM 35.5658 -81.5469 223° Southwest 187 215 7,900  Level Atlanta Center
03:56PM 35.5250 -81.5917 222° Southwest 187 215 7,900  Level Atlanta Center
03:57PM 35.4861 -81.6361 223° Southwest 187 215 7,900  Level Atlanta Center
03:58PM 35.4472 -81.6781 221° Southwest 187 215 7,900  Level Atlanta Center
03:59PM 35.4086 -81.7225 223° Southwest 187 215 7,900  Level Atlanta Center
04:00PM 35.3697 -81.7669 223° Southwest 187 215 7,900  Level Atlanta Center
04:01PM 35.3350 -81.8061 223° Southwest 187 215 7,900 -180 Level Atlanta Center
04:02PM 35.2981 -81.8503 224° Southwest 187 215 7,600 -480 Descending Atlanta Center
04:03PM 35.2592 -81.8894 219° Southwest 187 215 7,000 -780 Descending Atlanta Center
04:04PM 35.2158 -81.9161 207° Southwest 177 204 6,100 -900 Descending Atlanta Center
04:05PM 35.1683 -81.9375 200° South 177 204 5,200 -900 Descending Atlanta Center
04:06PM 35.1228 -81.9617 203° Southwest 182 209 4,400 -840 Descending Atlanta Center
04:08PM 35.0784 -82.0726 225° Southwest  Level FlightAware Approximate
04:15PM 34.8479 -82.3500 219° Southwest  Level Estimated
04:16PM 34.8479 -82.3500 219° Southwest  Level Estimated
04:17PM 34.8479 -82.3500 219° Southwest  Level Estimated
04:18PM 34.8479 -82.3500 219° Southwest  Level Estimated
04:19PM 34.8479 -82.3500 219° Southwest  Level Estimated
04:20PM 34.8479 -82.3500 219° Southwest  Level Estimated
04:21PM 34.8479 -82.3500 219° Southwest  Level Estimated
04:22PM 34.8479 -82.3500 219° Southwest  Level Estimated
04:23PM 34.8479 -82.3500 219° Southwest  Level Estimated
04:24PM 34.8479 -82.3500 219° Southwest  Level Estimated